Time;durP1;ratioP1;P1;durP2;ratioP2;P2;SDS_P1;SDS_P2;PMS_P1;PMS_P2;Temp;Humidity;BMP_temperature;BMP_pressure;BME280_temperature;BME280_humidity;BME280_pressure;Samples;Min_cycle;Max_cycle;Signal;HPM_P1;HPM_P2
2022/02/13 00:00:10;;;;;;;9.63;4.43;;;3.70;99.40;;;;;;5060742;28;20016;-87
2022/02/13 00:02:39;;;;;;;10.95;4.80;;;3.60;99.60;;;;;;5076805;28;20430;-87
2022/02/13 00:05:06;;;;;;;12.82;4.45;;;3.60;99.50;;;;;;5044006;28;20025;-87
2022/02/13 00:07:35;;;;;;;12.52;4.70;;;3.60;99.60;;;;;;5094265;28;20024;-87
2022/02/13 00:10:02;;;;;;;13.52;5.18;;;3.60;99.70;;;;;;5076467;28;20228;-87
2022/02/13 00:12:29;;;;;;;10.32;4.90;;;3.60;99.80;;;;;;5075809;28;20038;-86
2022/02/13 00:14:54;;;;;;;12.93;4.85;;;3.60;99.90;;;;;;5076741;28;20030;-85
2022/02/13 00:17:21;;;;;;;16.60;5.30;;;3.50;99.90;;;;;;5043383;28;20455;-86
2022/02/13 00:19:47;;;;;;;22.75;10.82;;;3.50;99.90;;;;;;5075825;28;20110;-87
2022/02/13 00:22:14;;;;;;;12.02;5.50;;;3.50;99.90;;;;;;5060539;28;20097;-86
2022/02/13 00:24:39;;;;;;;12.00;5.43;;;3.40;99.90;;;;;;5098787;28;20032;-87
2022/02/13 00:27:05;;;;;;;13.57;5.03;;;3.40;99.90;;;;;;5047993;28;20047;-87
2022/02/13 00:29:31;;;;;;;10.15;4.90;;;3.40;99.90;;;;;;5064186;28;20464;-87
2022/02/13 00:31:56;;;;;;;14.18;4.85;;;3.40;99.90;;;;;;5064920;28;20028;-88
2022/02/13 00:34:22;;;;;;;11.45;5.15;;;3.40;99.90;;;;;;5064636;28;20111;-87
2022/02/13 00:36:48;;;;;;;11.07;4.60;;;3.30;99.90;;;;;;5065084;28;20030;-87
2022/02/13 00:39:14;;;;;;;12.00;4.97;;;3.20;99.90;;;;;;5066515;28;20373;-87
2022/02/13 00:41:40;;;;;;;12.98;5.10;;;3.20;99.90;;;;;;5063145;28;20032;-88
2022/02/13 00:44:06;;;;;;;11.57;5.20;;;3.10;99.90;;;;;;5063537;28;20123;-88
2022/02/13 00:46:31;;;;;;;10.57;4.55;;;3.10;99.90;;;;;;5059863;28;20060;-87
2022/02/13 00:48:59;;;;;;;11.82;4.88;;;3.10;99.90;;;;;;5043939;28;20106;-88
2022/02/13 00:51:25;;;;;;;13.40;5.05;;;3.00;99.90;;;;;;5077522;28;20334;-87
2022/02/13 00:53:53;;;;;;;14.07;4.90;;;3.00;99.90;;;;;;5076445;28;20040;-87
2022/02/13 00:56:20;;;;;;;12.23;4.90;;;3.00;99.90;;;;;;5076149;28;20083;-88
2022/02/13 00:58:46;;;;;;;14.23;5.28;;;2.90;99.90;;;;;;5059637;28;20048;-87
2022/02/13 01:01:12;;;;;;;9.52;4.40;;;2.90;99.90;;;;;;5075977;28;20457;-86
2022/02/13 01:03:38;;;;;;;11.60;5.30;;;2.90;99.90;;;;;;5075121;28;20028;-88
2022/02/13 01:06:04;;;;;;;14.32;4.90;;;2.90;99.90;;;;;;5075869;28;20021;-87
2022/02/13 01:08:33;;;;;;;9.68;5.07;;;2.80;99.90;;;;;;5059099;28;20074;-88
2022/02/13 01:10:59;;;;;;;11.75;5.25;;;2.80;99.90;;;;;;5075938;28;20021;-88
2022/02/13 01:13:26;;;;;;;13.25;4.90;;;2.80;99.90;;;;;;5076019;28;20025;-85
2022/02/13 01:15:52;;;;;;;12.52;5.07;;;2.80;99.90;;;;;;5059653;28;20110;-87
2022/02/13 01:18:18;;;;;;;10.55;5.15;;;2.80;99.90;;;;;;5075614;28;20434;-87
2022/02/13 01:20:44;;;;;;;12.18;5.20;;;2.70;99.90;;;;;;5075293;28;20036;-87
2022/02/13 01:23:10;;;;;;;12.00;5.68;;;2.70;99.90;;;;;;5041214;28;20033;-88
2022/02/13 01:25:36;;;;;;;15.70;6.18;;;2.70;99.90;;;;;;5059717;28;20029;-86
2022/02/13 01:28:03;;;;;;;14.70;5.13;;;2.70;99.90;;;;;;5060030;28;20036;-86
2022/02/13 01:30:28;;;;;;;12.13;5.30;;;2.60;99.90;;;;;;5060037;28;20035;-87
2022/02/13 01:32:54;;;;;;;10.93;5.30;;;2.60;99.90;;;;;;5075728;28;20477;-86
2022/02/13 01:35:20;;;;;;;12.48;5.22;;;2.60;99.90;;;;;;5075840;28;20037;-86
2022/02/13 01:37:46;;;;;;;13.00;5.57;;;2.60;99.90;;;;;;5077474;28;20465;-86
2022/02/13 01:40:12;;;;;;;13.75;5.78;;;2.60;99.90;;;;;;5044153;28;20040;-86
2022/02/13 01:42:38;;;;;;;9.30;4.97;;;2.50;99.90;;;;;;5077146;28;20122;-86
2022/02/13 01:45:05;;;;;;;13.13;5.65;;;2.50;99.90;;;;;;5077281;28;20021;-86
2022/02/13 01:47:34;;;;;;;10.32;5.15;;;2.50;99.90;;;;;;5080011;28;20380;-87
2022/02/13 01:50:05;;;;;;;13.02;5.47;;;2.50;99.90;;;;;;5080797;28;20034;-86
2022/02/13 01:52:31;;;;;;;14.88;5.53;;;2.40;99.90;;;;;;5080525;28;20035;-86
2022/02/13 01:54:58;;;;;;;14.38;5.60;;;2.40;99.90;;;;;;5083420;28;20036;-86
2022/02/13 01:57:27;;;;;;;12.48;5.22;;;2.40;99.90;;;;;;5074858;28;20092;-86
2022/02/13 01:59:55;;;;;;;13.88;5.10;;;2.40;99.90;;;;;;5076477;28;20028;-86
2022/02/13 02:02:21;;;;;;;14.85;5.40;;;2.40;99.90;;;;;;5082950;28;20035;-86
2022/02/13 02:04:50;;;;;;;12.68;4.43;;;2.40;99.90;;;;;;5082232;28;20112;-84
2022/02/13 02:07:16;;;;;;;15.13;5.72;;;2.30;99.90;;;;;;5083788;28;20054;-85
2022/02/13 02:09:45;;;;;;;10.77;5.50;;;2.30;99.90;;;;;;5116577;28;20020;-86
2022/02/13 02:12:11;;;;;;;10.75;5.35;;;2.30;99.90;;;;;;5083104;28;20043;-87
2022/02/13 02:14:37;;;;;;;10.65;5.05;;;2.30;99.90;;;;;;5083255;28;20016;-88
2022/02/13 02:17:02;;;;;;;15.10;5.82;;;2.30;99.90;;;;;;5098354;28;20028;-88
2022/02/13 02:19:31;;;;;;;11.57;5.03;;;2.30;99.90;;;;;;5089291;28;20024;-86
2022/02/13 02:21:57;;;;;;;13.50;4.93;;;2.30;99.90;;;;;;5063336;28;20062;-86
2022/02/13 02:24:23;;;;;;;8.57;4.80;;;2.30;99.90;;;;;;5080199;28;20512;-86
2022/02/13 02:26:49;;;;;;;11.90;4.50;;;2.30;99.90;;;;;;5079622;28;20070;-86
2022/02/13 02:29:15;;;;;;;13.27;5.22;;;2.30;99.90;;;;;;5063816;28;20091;-87
2022/02/13 02:31:41;;;;;;;9.80;4.57;;;2.30;99.90;;;;;;5080083;28;20035;-86
2022/02/13 02:34:06;;;;;;;12.70;4.40;;;2.30;99.90;;;;;;5062437;28;20172;-87
2022/02/13 02:36:32;;;;;;;12.52;5.65;;;2.30;99.90;;;;;;5079714;28;20472;-86
2022/02/13 02:38:58;;;;;;;16.65;5.10;;;2.30;99.90;;;;;;5062059;28;20479;-86
2022/02/13 02:41:26;;;;;;;9.40;4.50;;;2.30;99.90;;;;;;5086611;28;20045;-86
2022/02/13 02:43:52;;;;;;;10.00;5.00;;;2.30;99.90;;;;;;5077185;28;20035;-86
2022/02/13 02:46:17;;;;;;;10.65;4.88;;;2.30;99.90;;;;;;5081137;28;20052;-86
2022/02/13 02:48:43;;;;;;;12.98;5.25;;;2.20;99.90;;;;;;5099870;28;20031;-85
2022/02/13 02:51:09;;;;;;;9.00;4.47;;;2.30;99.90;;;;;;5081995;28;20028;-87
2022/02/13 02:53:35;;;;;;;14.38;5.60;;;2.20;99.90;;;;;;5082085;28;20036;-85
2022/02/13 02:56:01;;;;;;;11.88;5.50;;;2.20;99.90;;;;;;5066622;28;20012;-86
2022/02/13 02:58:26;;;;;;;11.88;4.78;;;2.20;99.90;;;;;;5099835;28;20020;-86
2022/02/13 03:00:52;;;;;;;11.85;5.22;;;2.20;99.90;;;;;;5099734;28;20016;-86
2022/02/13 03:03:19;;;;;;;15.98;6.00;;;2.30;99.90;;;;;;5079717;28;20028;-86
2022/02/13 03:05:46;;;;;;;10.40;5.00;;;2.20;99.90;;;;;;5069206;28;20039;-86
2022/02/13 03:08:12;;;;;;;11.93;4.90;;;2.20;99.90;;;;;;5077898;28;20083;-86
2022/02/13 03:10:37;;;;;;;12.75;5.10;;;2.20;99.90;;;;;;5062350;28;20461;-86
2022/02/13 03:13:03;;;;;;;12.93;5.20;;;2.20;99.90;;;;;;5061485;28;20365;-86
2022/02/13 03:15:29;;;;;;;9.43;4.47;;;2.20;99.90;;;;;;5078160;28;20063;-86
2022/02/13 03:17:54;;;;;;;9.63;5.35;;;2.20;99.90;;;;;;5061210;28;20024;-87
2022/02/13 03:20:20;;;;;;;12.93;4.75;;;2.20;99.90;;;;;;5065814;28;20032;-86
2022/02/13 03:22:46;;;;;;;10.68;4.57;;;2.20;99.90;;;;;;5084344;28;20016;-87
2022/02/13 03:25:12;;;;;;;9.00;4.40;;;2.20;99.90;;;;;;5117387;28;20043;-87
2022/02/13 03:27:38;;;;;;;11.13;4.60;;;2.20;99.90;;;;;;5053714;28;20468;-86
2022/02/13 03:30:05;;;;;;;10.88;4.88;;;2.20;99.90;;;;;;5080905;28;20018;-86
2022/02/13 03:32:30;;;;;;;11.10;4.88;;;2.20;99.90;;;;;;5080549;28;20046;-86
2022/02/13 03:34:56;;;;;;;14.27;4.43;;;2.20;99.90;;;;;;5073731;28;20032;-87
2022/02/13 03:37:22;;;;;;;12.25;5.45;;;2.20;99.90;;;;;;5078555;28;20500;-87
2022/02/13 03:39:48;;;;;;;9.20;4.68;;;2.20;99.90;;;;;;5043718;28;20023;-86
2022/02/13 03:42:13;;;;;;;11.50;4.47;;;2.20;99.90;;;;;;5060417;28;20028;-87
2022/02/13 03:44:39;;;;;;;10.20;4.63;;;2.20;99.90;;;;;;5076727;28;20028;-86
2022/02/13 03:47:06;;;;;;;10.15;4.68;;;2.30;99.90;;;;;;5072206;28;20045;-86
2022/02/13 03:49:32;;;;;;;13.52;4.63;;;2.30;99.90;;;;;;5072806;28;20040;-85
2022/02/13 03:51:58;;;;;;;9.00;4.07;;;2.30;99.90;;;;;;5072653;28;20082;-87
2022/02/13 03:54:23;;;;;;;8.88;4.90;;;2.30;99.90;;;;;;5037923;28;20111;-87
2022/02/13 03:56:49;;;;;;;7.68;4.15;;;2.40;99.90;;;;;;5055062;28;20035;-87
2022/02/13 03:59:15;;;;;;;8.20;4.43;;;2.40;99.90;;;;;;5055777;28;20025;-86
2022/02/13 04:01:41;;;;;;;8.55;3.55;;;2.40;99.90;;;;;;5073847;28;20083;-86
2022/02/13 04:04:06;;;;;;;10.18;4.50;;;2.40;99.90;;;;;;5055344;28;20068;-87
2022/02/13 04:06:32;;;;;;;8.02;4.00;;;2.40;99.90;;;;;;5073218;28;20127;-86
2022/02/13 04:08:58;;;;;;;11.60;4.28;;;2.50;99.90;;;;;;5055643;28;20406;-85
2022/02/13 04:11:24;;;;;;;8.05;4.20;;;2.50;99.90;;;;;;5055508;28;20453;-86
2022/02/13 04:13:50;;;;;;;10.60;4.13;;;2.50;99.90;;;;;;5072169;28;20040;-86
2022/02/13 04:16:15;;;;;;;10.80;4.57;;;2.50;99.90;;;;;;5072248;28;20028;-86
2022/02/13 04:18:41;;;;;;;9.32;3.60;;;2.60;99.90;;;;;;5038945;28;20577;-86
2022/02/13 04:21:07;;;;;;;11.15;4.30;;;2.60;99.90;;;;;;5073164;28;20036;-87
2022/02/13 04:23:32;;;;;;;9.90;4.25;;;2.60;99.90;;;;;;5055763;28;20543;-86
2022/02/13 04:25:59;;;;;;;8.02;3.78;;;2.60;99.90;;;;;;5072036;28;20424;-86
2022/02/13 04:28:26;;;;;;;7.70;4.15;;;2.60;99.90;;;;;;5072334;28;20029;-86
2022/02/13 04:30:53;;;;;;;7.32;3.72;;;2.60;99.90;;;;;;5073323;28;20021;-86
2022/02/13 04:33:18;;;;;;;10.57;4.45;;;2.70;99.90;;;;;;5071962;28;20028;-86
2022/02/13 04:35:44;;;;;;;8.07;4.55;;;2.60;99.90;;;;;;5055536;28;20025;-86
2022/02/13 04:38:10;;;;;;;10.65;4.43;;;2.50;99.90;;;;;;5054924;28;20381;-87
2022/02/13 04:40:35;;;;;;;8.80;3.88;;;2.50;99.90;;;;;;5055181;28;20047;-86
2022/02/13 04:43:01;;;;;;;8.57;3.95;;;2.50;99.90;;;;;;5055217;28;20480;-86
2022/02/13 04:45:26;;;;;;;10.30;4.65;;;2.40;99.90;;;;;;5072260;28;20523;-86
2022/02/13 04:47:52;;;;;;;8.60;4.18;;;2.40;99.90;;;;;;5054866;28;20048;-87
2022/02/13 04:50:21;;;;;;;8.05;3.83;;;2.40;99.90;;;;;;5038795;28;20036;-86
2022/02/13 04:52:54;;;;;;;8.88;4.03;;;2.40;99.90;;;;;;5055041;28;20021;-86
2022/02/13 04:55:21;;;;;;;9.55;4.20;;;2.40;99.90;;;;;;5071715;28;20021;-86
2022/02/13 04:57:47;;;;;;;11.25;4.00;;;2.40;99.90;;;;;;5073146;28;20017;-86
2022/02/13 05:00:15;;;;;;;10.57;4.50;;;2.40;99.90;;;;;;5071972;28;20469;-87
2022/02/13 05:02:41;;;;;;;8.48;3.92;;;2.40;99.90;;;;;;5073526;28;20079;-86
2022/02/13 05:05:07;;;;;;;8.35;3.80;;;2.30;99.90;;;;;;5071662;28;20108;-86
2022/02/13 05:07:33;;;;;;;10.95;3.75;;;2.30;99.90;;;;;;5071808;28;20049;-86
2022/02/13 05:09:59;;;;;;;6.85;3.75;;;2.30;99.90;;;;;;5024667;28;20036;-86
2022/02/13 05:12:25;;;;;;;7.97;3.90;;;2.30;99.90;;;;;;5075180;28;20036;-85
2022/02/13 05:14:50;;;;;;;7.68;4.03;;;2.30;99.90;;;;;;5075172;28;20027;-85
2022/02/13 05:17:16;;;;;;;9.73;4.50;;;2.20;99.90;;;;;;5057716;28;20485;-86
2022/02/13 05:19:42;;;;;;;8.52;4.05;;;2.30;99.90;;;;;;5058661;28;20025;-86
2022/02/13 05:22:07;;;;;;;10.18;4.55;;;2.30;99.90;;;;;;5058164;28;20029;-86
2022/02/13 05:24:36;;;;;;;9.60;4.38;;;2.20;99.90;;;;;;5075088;28;20047;-86
2022/02/13 05:27:04;;;;;;;11.50;4.38;;;2.20;99.90;;;;;;5058382;28;20065;-87
2022/02/13 05:29:30;;;;;;;8.15;4.00;;;2.20;99.90;;;;;;5076263;28;20032;-87
2022/02/13 05:31:56;;;;;;;10.40;4.13;;;2.10;99.90;;;;;;5075804;28;20075;-86
2022/02/13 05:34:22;;;;;;;11.02;4.45;;;2.20;99.90;;;;;;5058192;28;20033;-87
2022/02/13 05:36:48;;;;;;;10.25;4.43;;;2.10;99.90;;;;;;5074766;28;20090;-87
2022/02/13 05:39:13;;;;;;;9.63;4.35;;;2.10;99.90;;;;;;5057963;28;20032;-86
2022/02/13 05:41:39;;;;;;;8.27;4.07;;;2.00;99.90;;;;;;5074902;28;20385;-85
2022/02/13 05:44:05;;;;;;;10.25;4.60;;;2.00;99.90;;;;;;5041280;28;20477;-87
2022/02/13 05:46:31;;;;;;;12.20;4.32;;;2.00;99.90;;;;;;5074258;28;20493;-86
2022/02/13 05:48:58;;;;;;;11.05;4.72;;;2.00;99.90;;;;;;5058045;28;20040;-86
2022/02/13 05:51:25;;;;;;;10.52;4.05;;;1.90;99.90;;;;;;5057944;28;20036;-85
2022/02/13 05:53:51;;;;;;;9.10;4.25;;;2.00;99.90;;;;;;5058230;28;20396;-86
2022/02/13 05:56:17;;;;;;;8.80;4.20;;;1.90;99.90;;;;;;5057479;28;20033;-86
2022/02/13 05:58:43;;;;;;;12.60;4.63;;;1.90;99.90;;;;;;5057578;28;20051;-86
2022/02/13 06:01:09;;;;;;;9.18;4.15;;;2.00;99.90;;;;;;5057673;28;20028;-86
2022/02/13 06:03:35;;;;;;;7.35;3.75;;;2.00;99.90;;;;;;5074153;28;20029;-86
2022/02/13 06:06:01;;;;;;;11.15;4.35;;;2.00;99.90;;;;;;5074993;28;20078;-86
2022/02/13 06:08:28;;;;;;;10.82;4.70;;;2.00;99.90;;;;;;5075837;28;20025;-86
2022/02/13 06:10:54;;;;;;;13.10;5.13;;;2.00;99.90;;;;;;5074302;28;20030;-86
2022/02/13 06:13:19;;;;;;;7.88;4.00;;;2.00;99.90;;;;;;5057038;28;20036;-86
2022/02/13 06:15:45;;;;;;;13.02;4.57;;;2.10;99.90;;;;;;5075184;28;20174;-86
2022/02/13 06:18:11;;;;;;;7.82;4.80;;;2.00;99.90;;;;;;5040564;28;20029;-86
2022/02/13 06:20:37;;;;;;;8.40;4.50;;;2.00;99.90;;;;;;5056459;28;20029;-86
2022/02/13 06:23:02;;;;;;;9.27;4.15;;;2.00;99.90;;;;;;5057214;28;20039;-87
2022/02/13 06:25:28;;;;;;;6.88;4.05;;;2.00;99.90;;;;;;5057483;28;20032;-86
2022/02/13 06:27:54;;;;;;;9.10;4.57;;;2.00;99.90;;;;;;5073846;28;20028;-85
2022/02/13 06:30:19;;;;;;;9.32;4.50;;;2.00;99.90;;;;;;5056888;28;20025;-86
2022/02/13 06:32:45;;;;;;;9.73;4.65;;;2.00;99.90;;;;;;5073503;28;20024;-86
2022/02/13 06:35:11;;;;;;;13.63;4.45;;;2.00;99.90;;;;;;5073644;28;20107;-86
2022/02/13 06:37:37;;;;;;;8.65;4.80;;;2.10;99.90;;;;;;5057125;28;20056;-86
2022/02/13 06:40:04;;;;;;;13.02;5.00;;;2.00;99.90;;;;;;5073478;28;20028;-85
2022/02/13 06:42:29;;;;;;;9.20;4.43;;;2.00;99.90;;;;;;5057351;28;20103;-86
2022/02/13 06:44:55;;;;;;;10.82;4.80;;;2.00;99.90;;;;;;5073335;28;20388;-85
2022/02/13 06:47:20;;;;;;;7.93;4.35;;;2.00;99.90;;;;;;5056537;28;20079;-86
2022/02/13 06:49:46;;;;;;;8.50;4.22;;;2.00;99.90;;;;;;5056624;28;20035;-86
2022/02/13 06:52:12;;;;;;;10.07;4.97;;;2.00;99.90;;;;;;5056760;28;20043;-87
2022/02/13 06:54:37;;;;;;;9.77;4.60;;;2.10;99.90;;;;;;5041720;28;20040;-86
2022/02/13 06:57:03;;;;;;;8.80;4.05;;;2.10;99.90;;;;;;5057416;28;20067;-87
2022/02/13 06:59:29;;;;;;;8.57;4.63;;;2.10;99.90;;;;;;5058425;28;20051;-86
2022/02/13 07:01:55;;;;;;;9.50;4.75;;;2.00;99.90;;;;;;5079883;28;20036;-86
2022/02/13 07:04:20;;;;;;;9.40;4.20;;;2.10;99.90;;;;;;5081288;28;20020;-85
2022/02/13 07:06:46;;;;;;;9.25;4.47;;;2.10;99.90;;;;;;5080712;28;20024;-86
2022/02/13 07:09:11;;;;;;;8.07;4.40;;;2.20;99.90;;;;;;5097708;28;20012;-87
2022/02/13 07:11:37;;;;;;;9.65;4.45;;;2.20;99.90;;;;;;5080800;28;20039;-86
2022/02/13 07:14:03;;;;;;;9.35;4.40;;;2.20;99.90;;;;;;5079980;28;20024;-86
2022/02/13 07:16:29;;;;;;;9.88;4.45;;;2.20;99.90;;;;;;5045409;28;20470;-86
2022/02/13 07:18:56;;;;;;;10.05;4.45;;;2.20;99.90;;;;;;5049646;28;20029;-86
2022/02/13 07:21:22;;;;;;;10.15;4.43;;;2.20;99.90;;;;;;5062026;28;20033;-86
2022/02/13 07:23:47;;;;;;;8.32;4.07;;;2.20;99.90;;;;;;5073609;28;20389;-86
2022/02/13 07:26:13;;;;;;;10.63;4.70;;;2.30;99.90;;;;;;5072781;28;20082;-86
2022/02/13 07:31:23;;;;;;;9.18;4.47;;;2.30;99.90;;;;;;5073717;28;20117;-87
2022/02/13 07:33:48;;;;;;;9.05;4.22;;;2.30;99.90;;;;;;5023159;28;20127;-87
2022/02/13 07:36:14;;;;;;;8.85;4.13;;;2.40;99.90;;;;;;5072705;28;20033;-86
2022/02/13 07:38:40;;;;;;;9.30;4.60;;;2.40;99.90;;;;;;5074093;28;20029;-86
2022/02/13 07:41:07;;;;;;;11.25;4.70;;;2.40;99.90;;;;;;5072642;28;20025;-86
2022/02/13 07:43:33;;;;;;;12.60;4.40;;;2.40;99.90;;;;;;5039279;28;20389;-86
2022/02/13 07:45:59;;;;;;;8.63;4.53;;;2.40;99.90;;;;;;5038902;28;20036;-85
2022/02/13 07:48:25;;;;;;;11.45;4.72;;;2.50;99.90;;;;;;5058430;28;20024;-87
2022/02/13 07:50:50;;;;;;;9.80;4.75;;;2.50;99.90;;;;;;5059025;28;20103;-86
2022/02/13 07:53:17;;;;;;;9.05;4.78;;;2.60;99.90;;;;;;5042118;28;20032;-86
2022/02/13 07:55:43;;;;;;;8.23;4.50;;;2.70;99.90;;;;;;5075588;28;20126;-86
2022/02/13 07:58:09;;;;;;;11.05;4.28;;;2.60;99.90;;;;;;5075712;28;20077;-86
2022/02/13 08:00:35;;;;;;;10.40;4.60;;;2.70;99.90;;;;;;5042094;28;20445;-86
2022/02/13 08:03:01;;;;;;;8.25;4.80;;;2.70;99.90;;;;;;5058538;28;20123;-86
2022/02/13 08:05:26;;;;;;;9.10;4.22;;;2.80;99.90;;;;;;5058613;28;20040;-86
2022/02/13 08:07:52;;;;;;;8.55;4.30;;;2.80;99.90;;;;;;5075178;28;20401;-86
2022/02/13 08:10:18;;;;;;;9.82;4.90;;;2.90;99.90;;;;;;5040561;28;20040;-87
2022/02/13 08:12:45;;;;;;;13.32;4.55;;;2.90;99.90;;;;;;5022132;28;20114;-86
2022/02/13 08:15:11;;;;;;;7.45;3.80;;;3.00;99.90;;;;;;5038708;28;20028;-86
2022/02/13 08:17:37;;;;;;;8.88;4.18;;;3.10;99.90;;;;;;5043485;28;20036;-87
2022/02/13 08:20:05;;;;;;;11.07;5.65;;;3.00;99.90;;;;;;5079098;28;20028;-88
2022/02/13 08:22:36;;;;;;;9.77;4.20;;;3.10;99.90;;;;;;5031711;28;20036;-87
2022/02/13 08:25:03;;;;;;;8.10;4.03;;;3.10;99.90;;;;;;5043466;28;20032;-87
2022/02/13 08:27:29;;;;;;;8.48;4.05;;;3.10;99.90;;;;;;5055088;28;20033;-86
2022/02/13 08:29:55;;;;;;;7.68;4.80;;;3.20;99.90;;;;;;5055404;28;20052;-86
2022/02/13 08:32:23;;;;;;;7.75;3.65;;;3.30;99.90;;;;;;5038258;28;20053;-87
2022/02/13 08:34:49;;;;;;;10.80;5.00;;;3.30;99.90;;;;;;5054970;28;20020;-86
2022/02/13 08:37:15;;;;;;;11.75;4.13;;;3.30;99.90;;;;;;5038810;28;20128;-87
2022/02/13 08:39:41;;;;;;;7.05;4.00;;;3.30;99.90;;;;;;5054902;28;20047;-87
2022/02/13 08:42:07;;;;;;;7.57;4.00;;;3.40;99.90;;;;;;5045678;28;20024;-87
2022/02/13 08:44:33;;;;;;;9.77;4.10;;;3.40;99.90;;;;;;5043924;28;20504;-86
2022/02/13 08:46:58;;;;;;;9.23;4.55;;;3.50;99.90;;;;;;5095029;28;20048;-86
2022/02/13 08:49:27;;;;;;;9.02;4.85;;;3.50;99.90;;;;;;5059035;28;20031;-88
2022/02/13 08:51:52;;;;;;;9.35;4.38;;;3.50;99.90;;;;;;5066153;28;20084;-85
2022/02/13 08:54:18;;;;;;;8.95;4.47;;;3.60;99.90;;;;;;5067432;28;20036;-87
2022/02/13 08:56:44;;;;;;;7.80;4.18;;;3.70;99.90;;;;;;5060521;28;20032;-87
2022/02/13 08:59:10;;;;;;;9.57;4.05;;;3.70;99.90;;;;;;5062047;28;20020;-87
2022/02/13 09:01:35;;;;;;;8.07;4.45;;;3.70;99.90;;;;;;5078619;28;20021;-86
2022/02/13 09:04:02;;;;;;;10.55;4.75;;;3.80;99.90;;;;;;5061981;28;20059;-86
2022/02/13 09:06:28;;;;;;;8.65;4.63;;;3.80;99.90;;;;;;5061777;28;20097;-85
2022/02/13 09:08:53;;;;;;;7.80;4.53;;;3.90;99.90;;;;;;5061718;28;20460;-86
2022/02/13 09:11:19;;;;;;;9.85;4.47;;;3.90;99.90;;;;;;5061582;28;20059;-86
2022/02/13 09:13:45;;;;;;;7.78;4.35;;;3.90;99.90;;;;;;5077812;28;20115;-86
2022/02/13 09:16:10;;;;;;;8.32;4.70;;;4.00;99.90;;;;;;5077830;28;20031;-86
2022/02/13 09:18:36;;;;;;;10.95;4.50;;;4.00;99.90;;;;;;5059214;28;20028;-86
2022/02/13 09:21:03;;;;;;;6.78;4.30;;;4.10;99.90;;;;;;5041936;28;20024;-86
2022/02/13 09:23:28;;;;;;;9.82;4.22;;;4.10;99.90;;;;;;5024942;28;20063;-89
2022/02/13 09:25:54;;;;;;;7.47;3.97;;;4.20;99.90;;;;;;5025259;28;20029;-89
2022/02/13 09:28:20;;;;;;;8.38;4.55;;;4.30;99.90;;;;;;5041663;28;20028;-86
2022/02/13 09:30:47;;;;;;;9.90;4.18;;;4.40;99.90;;;;;;5041139;28;20530;-87
2022/02/13 09:33:13;;;;;;;7.68;4.90;;;4.40;99.90;;;;;;5058158;28;20047;-87
2022/02/13 09:35:39;;;;;;;7.60;4.22;;;4.50;99.90;;;;;;5057885;28;20495;-85
2022/02/13 09:38:05;;;;;;;9.82;4.68;;;4.60;99.90;;;;;;5069125;28;20020;-86
2022/02/13 09:40:35;;;;;;;7.80;4.50;;;4.70;99.90;;;;;;5059111;28;20058;-89
2022/02/13 09:43:04;;;;;;;8.93;4.32;;;4.70;99.90;;;;;;5061575;28;20021;-86
2022/02/13 09:45:31;;;;;;;8.32;4.93;;;4.80;99.90;;;;;;5075705;28;20056;-87
2022/02/13 09:48:01;;;;;;;6.65;4.15;;;4.90;99.90;;;;;;5057590;28;20503;-87
2022/02/13 09:50:28;;;;;;;6.68;4.18;;;4.90;99.90;;;;;;5041127;28;20032;-87
2022/02/13 09:52:56;;;;;;;11.20;4.43;;;4.90;99.90;;;;;;5059159;28;20469;-86
2022/02/13 09:55:26;;;;;;;7.47;4.18;;;5.00;99.90;;;;;;5075873;28;20437;-88
2022/02/13 09:58:04;;;;;;;9.63;4.97;;;5.10;99.90;;;;;;5060556;28;20044;-86
2022/02/13 10:00:49;;;;;;;9.07;4.38;;;5.10;99.90;;;;;;5047782;28;20444;-88
2022/02/13 10:03:40;;;;;;;6.25;3.75;;;5.20;99.90;;;;;;5065316;28;20024;-86
2022/02/13 10:06:26;;;;;;;9.07;4.00;;;5.20;99.90;;;;;;5074308;28;20025;-86
2022/02/13 10:08:54;;;;;;;8.68;4.18;;;5.30;99.90;;;;;;5064951;28;20032;-87
2022/02/13 10:11:25;;;;;;;8.40;4.38;;;5.40;99.90;;;;;;5067057;28;20020;-86
2022/02/13 10:13:54;;;;;;;7.28;4.32;;;5.50;99.90;;;;;;5085626;28;20028;-86
2022/02/13 10:16:20;;;;;;;7.80;4.25;;;5.50;99.90;;;;;;5064873;28;20067;-86
2022/02/13 10:18:51;;;;;;;7.35;4.25;;;5.60;99.90;;;;;;5062488;28;20425;-86
2022/02/13 10:21:44;;;;;;;7.90;4.50;;;5.70;99.90;;;;;;5074950;28;20036;-86
2022/02/13 10:24:29;;;;;;;7.03;4.10;;;5.80;99.90;;;;;;5038302;28;20143;-86
2022/02/13 10:27:04;;;;;;;8.32;4.18;;;5.90;99.90;;;;;;5057650;28;20119;-88
2022/02/13 10:29:33;;;;;;;8.40;4.20;;;5.90;99.90;;;;;;5057785;28;20024;-88
2022/02/13 10:32:11;;;;;;;7.97;4.10;;;6.00;99.90;;;;;;5057437;28;20070;-87
2022/02/13 10:34:55;;;;;;;7.03;4.38;;;6.10;99.90;;;;;;5075711;28;20036;-89
2022/02/13 10:37:39;;;;;;;7.88;4.07;;;6.20;99.90;;;;;;5043624;28;20032;-92
2022/02/13 10:40:07;;;;;;;7.97;4.65;;;6.30;99.90;;;;;;5075940;28;20020;-89
2022/02/13 10:42:32;;;;;;;6.22;3.92;;;6.30;99.90;;;;;;5041667;28;20040;-87
2022/02/13 10:45:25;;;;;;;8.85;4.53;;;6.40;99.90;;;;;;5057696;28;20123;-88
2022/02/13 10:48:04;;;;;;;7.53;4.20;;;6.50;99.90;;;;;;5059845;28;20056;-88
2022/02/13 10:50:32;;;;;;;6.65;3.72;;;6.60;99.90;;;;;;5081341;28;20013;-86
2022/02/13 10:52:59;;;;;;;8.00;4.68;;;6.70;99.90;;;;;;5098378;28;20092;-85
2022/02/13 10:55:29;;;;;;;9.65;4.20;;;6.80;99.90;;;;;;5080899;28;20039;-89
2022/02/13 10:57:57;;;;;;;6.93;4.28;;;6.90;99.90;;;;;;5097539;28;20092;-87
2022/02/13 11:00:23;;;;;;;6.82;3.92;;;7.00;99.90;;;;;;5078081;28;20083;-88
2022/02/13 11:02:50;;;;;;;7.13;3.95;;;7.10;99.90;;;;;;5068017;28;20028;-88
2022/02/13 11:05:19;;;;;;;8.57;4.03;;;7.10;99.90;;;;;;5044953;28;20028;-87
2022/02/13 11:07:48;;;;;;;7.80;3.90;;;7.30;99.90;;;;;;5076255;28;20081;-88
2022/02/13 11:10:34;;;;;;;8.88;4.20;;;7.40;99.90;;;;;;5077283;28;20031;-86
2022/02/13 11:13:00;;;;;;;6.65;3.35;;;7.50;99.90;;;;;;5095041;28;20027;-87
2022/02/13 11:15:31;;;;;;;7.75;3.80;;;7.60;99.90;;;;;;5077075;28;20058;-86
2022/02/13 11:18:05;;;;;;;7.07;3.70;;;7.70;99.90;;;;;;5077915;28;20533;-88
2022/02/13 11:20:32;;;;;;;6.20;3.55;;;7.90;99.90;;;;;;5077661;28;20115;-89
2022/02/13 11:23:36;;;;;;;6.40;3.72;;;8.00;99.90;;;;;;5060601;28;20032;-90
2022/02/13 11:26:07;;;;;;;8.63;3.55;;;8.10;99.90;;;;;;4997148;28;20128;-90
2022/02/13 11:28:42;;;;;;;7.63;3.75;;;8.20;99.90;;;;;;5013710;28;20026;-89
2022/02/13 11:31:27;;;;;;;7.00;3.88;;;8.30;99.90;;;;;;5059152;28;20058;-89
2022/02/13 11:33:52;;;;;;;6.72;3.60;;;8.40;99.90;;;;;;5062182;28;20028;-89
2022/02/13 11:36:18;;;;;;;8.10;3.80;;;8.50;99.90;;;;;;5044136;28;20066;-90
2022/02/13 11:38:46;;;;;;;7.30;3.92;;;8.60;99.90;;;;;;5060601;28;20070;-89
2022/02/13 11:41:19;;;;;;;7.05;3.55;;;8.70;99.90;;;;;;5076978;28;20052;-90
2022/02/13 11:43:45;;;;;;;6.00;3.80;;;8.80;99.90;;;;;;5094721;28;20085;-88
2022/02/13 11:46:37;;;;;;;6.53;3.63;;;8.90;99.60;;;;;;5077206;28;20024;-90
2022/02/13 11:49:05;;;;;;;7.53;4.10;;;8.90;99.90;;;;;;5093782;28;20484;-89
2022/02/13 11:51:46;;;;;;;7.30;3.80;;;9.10;99.90;;;;;;5042220;28;20028;-89
2022/02/13 11:54:43;;;;;;;7.88;4.22;;;9.20;99.90;;;;;;5094853;28;20036;-89
2022/02/13 11:57:16;;;;;;;6.28;3.60;;;9.20;99.90;;;;;;5094223;28;20024;-86
2022/02/13 12:00:03;;;;;;;6.45;4.00;;;9.30;99.90;;;;;;5075753;28;20097;-89
2022/02/13 12:02:35;;;;;;;6.43;3.92;;;9.40;99.90;;;;;;5076819;28;20081;-89
2022/02/13 12:05:03;;;;;;;6.07;3.88;;;9.40;99.40;;;;;;5076569;28;20028;-88
2022/02/13 12:07:38;;;;;;;6.72;3.78;;;9.40;99.00;;;;;;5076211;28;20115;-84
2022/02/13 12:10:11;;;;;;;8.18;4.07;;;9.50;99.50;;;;;;5067682;28;20056;-88
2022/02/13 12:12:38;;;;;;;5.97;3.72;;;9.60;99.10;;;;;;5055960;28;20035;-88
2022/02/13 12:15:04;;;;;;;7.32;4.55;;;9.60;99.30;;;;;;5055842;28;20069;-87
2022/02/13 12:17:30;;;;;;;7.22;3.95;;;9.70;99.90;;;;;;5057319;28;20107;-88
2022/02/13 12:20:11;;;;;;;5.53;3.58;;;9.80;99.90;;;;;;5027727;28;20062;-88
2022/02/13 12:22:38;;;;;;;6.82;4.28;;;10.00;99.90;;;;;;5060431;28;20031;-87
2022/02/13 12:25:09;;;;;;;6.57;3.40;;;10.10;98.30;;;;;;5043456;28;20036;-88
2022/02/13 12:27:36;;;;;;;;;;;10.20;99.00;;;;;;5060504;28;20094;-88
2022/02/13 12:30:05;;;;;;;7.43;3.63;;;10.20;98.20;;;;;;5059914;28;19912;-87
2022/02/13 12:32:33;;;;;;;6.28;4.22;;;10.30;97.30;;;;;;5060098;28;20074;-88
2022/02/13 12:35:10;;;;;;;6.70;4.28;;;10.30;97.90;;;;;;5042842;28;20029;-87
2022/02/13 12:37:38;;;;;;;7.97;3.67;;;10.40;98.10;;;;;;5059693;28;20119;-88
2022/02/13 12:40:05;;;;;;;7.38;3.90;;;10.40;97.90;;;;;;5059413;28;20024;-87
2022/02/13 12:42:33;;;;;;;6.85;3.58;;;10.50;98.20;;;;;;5060959;28;20024;-91
2022/02/13 12:45:01;;;;;;;8.18;4.18;;;10.60;97.60;;;;;;5078475;28;20377;-91
2022/02/13 12:47:28;;;;;;;5.95;3.80;;;10.60;97.20;;;;;;5060240;28;20048;-86
2022/02/13 12:49:54;;;;;;;7.20;3.83;;;10.60;97.40;;;;;;5043514;28;20040;-89
2022/02/13 12:52:23;;;;;;;7.10;4.40;;;10.60;97.30;;;;;;5045725;28;20028;-87
2022/02/13 12:54:49;;;;;;;6.15;3.78;;;10.60;96.70;;;;;;5058361;28;20031;-86
2022/02/13 12:57:19;;;;;;;6.03;3.70;;;10.60;97.10;;;;;;5041416;28;20159;-89